sensor_id;sensor_type;location;lat;lon;timestamp;temperature;humidity
4207;DHT22;2117;47.972;7.830;2023-03-01T00:02:16;-0.70;99.90
4207;DHT22;2117;47.972;7.830;2023-03-01T00:04:42;-0.70;99.90
4207;DHT22;2117;47.972;7.830;2023-03-01T00:07:08;-0.70;99.90
4207;DHT22;2117;47.972;7.830;2023-03-01T00:09:35;-0.80;99.90
4207;DHT22;2117;47.972;7.830;2023-03-01T00:12:04;-0.70;99.90
4207;DHT22;2117;47.972;7.830;2023-03-01T00:14:30;-0.80;99.90
4207;DHT22;2117;47.972;7.830;2023-03-01T00:16:56;-0.70;99.90
4207;DHT22;2117;47.972;7.830;2023-03-01T00:19:26;-0.70;99.90
4207;DHT22;2117;47.972;7.830;2023-03-01T00:21:57;-0.80;99.90
4207;DHT22;2117;47.972;7.830;2023-03-01T00:24:23;-0.80;99.90
4207;DHT22;2117;47.972;7.830;2023-03-01T00:26:53;-0.90;99.90
4207;DHT22;2117;47.972;7.830;2023-03-01T00:29:23;-0.90;99.90
4207;DHT22;2117;47.972;7.830;2023-03-01T00:31:52;-0.90;99.90
4207;DHT22;2117;47.972;7.830;2023-03-01T00:34:17;-1.00;99.90
4207;DHT22;2117;47.972;7.830;2023-03-01T00:36:44;-1.00;99.90
4207;DHT22;2117;47.972;7.830;2023-03-01T00:39:13;-1.00;99.90
4207;DHT22;2117;47.972;7.830;2023-03-01T00:41:39;-1.10;99.90
4207;DHT22;2117;47.972;7.830;2023-03-01T00:44:05;-1.10;99.90
4207;DHT22;2117;47.972;7.830;2023-03-01T00:46:31;-1.00;99.90
4207;DHT22;2117;47.972;7.830;2023-03-01T00:48:57;-1.10;99.90
4207;DHT22;2117;47.972;7.830;2023-03-01T00:51:26;-1.10;99.90
4207;DHT22;2117;47.972;7.830;2023-03-01T00:53:53;-1.10;99.90
4207;DHT22;2117;47.972;7.830;2023-03-01T00:56:20;-1.10;99.90
4207;DHT22;2117;47.972;7.830;2023-03-01T00:58:45;-1.00;99.90
4207;DHT22;2117;47.972;7.830;2023-03-01T01:01:17;-1.00;99.90
4207;DHT22;2117;47.972;7.830;2023-03-01T01:03:48;-1.00;99.90
4207;DHT22;2117;47.972;7.830;2023-03-01T01:06:23;-1.00;99.90
4207;DHT22;2117;47.972;7.830;2023-03-01T01:08:50;-1.00;99.90
4207;DHT22;2117;47.972;7.830;2023-03-01T01:11:16;-1.00;99.90
4207;DHT22;2117;47.972;7.830;2023-03-01T01:13:43;-1.00;99.90
4207;DHT22;2117;47.972;7.830;2023-03-01T01:16:09;-1.00;99.90
4207;DHT22;2117;47.972;7.830;2023-03-01T01:18:34;-1.00;99.90
4207;DHT22;2117;47.972;7.830;2023-03-01T01:21:05;-1.00;99.90
4207;DHT22;2117;47.972;7.830;2023-03-01T01:23:31;-1.10;99.90
4207;DHT22;2117;47.972;7.830;2023-03-01T01:25:57;-1.10;99.90
4207;DHT22;2117;47.972;7.830;2023-03-01T01:28:22;-1.10;99.90
4207;DHT22;2117;47.972;7.830;2023-03-01T01:30:48;-1.20;99.90
4207;DHT22;2117;47.972;7.830;2023-03-01T01:33:14;-1.20;99.90
4207;DHT22;2117;47.972;7.830;2023-03-01T01:35:39;-1.20;99.90
4207;DHT22;2117;47.972;7.830;2023-03-01T01:38:05;-1.20;99.90
4207;DHT22;2117;47.972;7.830;2023-03-01T01:40:30;-1.20;99.90
4207;DHT22;2117;47.972;7.830;2023-03-01T01:42:56;-1.30;99.90
4207;DHT22;2117;47.972;7.830;2023-03-01T01:45:34;-1.30;99.90
4207;DHT22;2117;47.972;7.830;2023-03-01T01:48:14;-1.40;99.90
4207;DHT22;2117;47.972;7.830;2023-03-01T01:50:41;-1.40;99.90
4207;DHT22;2117;47.972;7.830;2023-03-01T01:53:15;-1.50;99.90
4207;DHT22;2117;47.972;7.830;2023-03-01T01:55:44;-1.40;99.90
4207;DHT22;2117;47.972;7.830;2023-03-01T01:58:14;-1.40;99.90
4207;DHT22;2117;47.972;7.830;2023-03-01T02:00:40;-1.30;99.90
4207;DHT22;2117;47.972;7.830;2023-03-01T02:03:20;-1.30;99.90
4207;DHT22;2117;47.972;7.830;2023-03-01T02:06:03;-1.30;99.90
4207;DHT22;2117;47.972;7.830;2023-03-01T02:08:33;-1.30;99.90
4207;DHT22;2117;47.972;7.830;2023-03-01T02:11:01;-1.40;99.90
4207;DHT22;2117;47.972;7.830;2023-03-01T02:13:31;-1.50;99.90
4207;DHT22;2117;47.972;7.830;2023-03-01T02:15:57;-1.40;99.90
4207;DHT22;2117;47.972;7.830;2023-03-01T02:18:23;-1.50;99.90
4207;DHT22;2117;47.972;7.830;2023-03-01T02:23:54;-1.60;99.90
4207;DHT22;2117;47.972;7.830;2023-03-01T02:26:29;-1.60;99.90
4207;DHT22;2117;47.972;7.830;2023-03-01T02:28:58;-1.60;99.90
4207;DHT22;2117;47.972;7.830;2023-03-01T02:31:24;-1.70;99.90
4207;DHT22;2117;47.972;7.830;2023-03-01T02:34:11;-1.70;99.90
4207;DHT22;2117;47.972;7.830;2023-03-01T02:36:45;-1.60;99.90
4207;DHT22;2117;47.972;7.830;2023-03-01T02:39:15;-1.60;99.90
4207;DHT22;2117;47.972;7.830;2023-03-01T02:41:46;-1.60;99.90
4207;DHT22;2117;47.972;7.830;2023-03-01T02:44:12;-1.60;99.90
4207;DHT22;2117;47.972;7.830;2023-03-01T02:46:47;-1.50;99.90
4207;DHT22;2117;47.972;7.830;2023-03-01T02:49:27;-1.50;99.90
4207;DHT22;2117;47.972;7.830;2023-03-01T02:52:01;-1.50;99.90
4207;DHT22;2117;47.972;7.830;2023-03-01T02:57:22;-1.60;99.90
4207;DHT22;2117;47.972;7.830;2023-03-01T02:59:49;-1.50;99.90
4207;DHT22;2117;47.972;7.830;2023-03-01T03:02:23;-1.50;99.90
4207;DHT22;2117;47.972;7.830;2023-03-01T03:05:34;-1.50;99.90
4207;DHT22;2117;47.972;7.830;2023-03-01T03:08:01;-1.60;99.90
4207;DHT22;2117;47.972;7.830;2023-03-01T03:10:30;-1.60;99.90
4207;DHT22;2117;47.972;7.830;2023-03-01T03:13:01;-1.60;99.90
4207;DHT22;2117;47.972;7.830;2023-03-01T03:15:28;-1.60;99.90
4207;DHT22;2117;47.972;7.830;2023-03-01T03:17:54;-1.70;99.90
4207;DHT22;2117;47.972;7.830;2023-03-01T03:20:23;-1.70;99.90
4207;DHT22;2117;47.972;7.830;2023-03-01T03:22:52;-1.70;99.90
4207;DHT22;2117;47.972;7.830;2023-03-01T03:25:19;-1.70;99.90
4207;DHT22;2117;47.972;7.830;2023-03-01T03:27:46;-1.70;99.90
4207;DHT22;2117;47.972;7.830;2023-03-01T03:30:17;-1.80;99.90
4207;DHT22;2117;47.972;7.830;2023-03-01T03:32:45;-1.80;99.90
4207;DHT22;2117;47.972;7.830;2023-03-01T03:35:18;-1.80;99.90
4207;DHT22;2117;47.972;7.830;2023-03-01T03:37:44;-1.80;99.90
4207;DHT22;2117;47.972;7.830;2023-03-01T03:40:31;-1.80;99.90
4207;DHT22;2117;47.972;7.830;2023-03-01T03:42:57;-1.80;99.90
4207;DHT22;2117;47.972;7.830;2023-03-01T03:45:22;-1.70;99.90
4207;DHT22;2117;47.972;7.830;2023-03-01T03:47:48;-1.70;99.90
4207;DHT22;2117;47.972;7.830;2023-03-01T03:50:15;-1.70;99.90
4207;DHT22;2117;47.972;7.830;2023-03-01T03:52:42;-1.60;99.90
4207;DHT22;2117;47.972;7.830;2023-03-01T03:55:09;-1.50;99.90
4207;DHT22;2117;47.972;7.830;2023-03-01T03:57:35;-1.50;99.90
4207;DHT22;2117;47.972;7.830;2023-03-01T04:00:01;-1.60;99.90
4207;DHT22;2117;47.972;7.830;2023-03-01T04:02:29;-1.50;99.90
4207;DHT22;2117;47.972;7.830;2023-03-01T04:04:54;-1.50;99.90
4207;DHT22;2117;47.972;7.830;2023-03-01T04:07:20;-1.40;99.90
4207;DHT22;2117;47.972;7.830;2023-03-01T04:09:45;-1.40;99.90
4207;DHT22;2117;47.972;7.830;2023-03-01T04:12:11;-1.30;99.90
4207;DHT22;2117;47.972;7.830;2023-03-01T04:14:36;-1.20;99.90
4207;DHT22;2117;47.972;7.830;2023-03-01T04:17:03;-1.20;99.90
4207;DHT22;2117;47.972;7.830;2023-03-01T04:19:31;-1.10;99.90
4207;DHT22;2117;47.972;7.830;2023-03-01T04:22:02;-1.20;99.90
4207;DHT22;2117;47.972;7.830;2023-03-01T04:24:35;-1.20;99.90
4207;DHT22;2117;47.972;7.830;2023-03-01T04:27:00;-1.20;99.90
4207;DHT22;2117;47.972;7.830;2023-03-01T04:29:26;-1.20;99.90
4207;DHT22;2117;47.972;7.830;2023-03-01T04:31:51;-1.20;99.90
4207;DHT22;2117;47.972;7.830;2023-03-01T04:34:17;-1.10;99.90
4207;DHT22;2117;47.972;7.830;2023-03-01T04:36:42;-1.00;99.90
4207;DHT22;2117;47.972;7.830;2023-03-01T04:39:08;-1.00;99.90
4207;DHT22;2117;47.972;7.830;2023-03-01T04:41:38;-1.00;99.90
4207;DHT22;2117;47.972;7.830;2023-03-01T04:44:05;-0.90;99.90
4207;DHT22;2117;47.972;7.830;2023-03-01T04:46:30;-0.90;99.90
4207;DHT22;2117;47.972;7.830;2023-03-01T04:48:56;-0.90;99.90
4207;DHT22;2117;47.972;7.830;2023-03-01T04:51:21;-0.90;99.90
4207;DHT22;2117;47.972;7.830;2023-03-01T04:53:47;-0.80;99.90
4207;DHT22;2117;47.972;7.830;2023-03-01T04:56:13;-0.80;99.90
4207;DHT22;2117;47.972;7.830;2023-03-01T04:58:39;-0.70;99.90
4207;DHT22;2117;47.972;7.830;2023-03-01T05:01:13;-0.70;99.90
4207;DHT22;2117;47.972;7.830;2023-03-01T05:03:46;-0.70;99.90
4207;DHT22;2117;47.972;7.830;2023-03-01T05:06:12;-0.70;99.90
4207;DHT22;2117;47.972;7.830;2023-03-01T05:08:39;-0.70;99.90
4207;DHT22;2117;47.972;7.830;2023-03-01T05:11:05;-0.80;99.90
4207;DHT22;2117;47.972;7.830;2023-03-01T05:13:31;-0.70;99.90
4207;DHT22;2117;47.972;7.830;2023-03-01T05:15:59;-0.60;99.90
4207;DHT22;2117;47.972;7.830;2023-03-01T05:18:26;-0.60;99.90
4207;DHT22;2117;47.972;7.830;2023-03-01T05:21:01;-0.60;99.90
4207;DHT22;2117;47.972;7.830;2023-03-01T05:23:26;-0.50;99.90
4207;DHT22;2117;47.972;7.830;2023-03-01T05:25:52;-0.60;99.90
4207;DHT22;2117;47.972;7.830;2023-03-01T05:28:19;-0.50;99.90
4207;DHT22;2117;47.972;7.830;2023-03-01T05:30:45;-0.50;99.90
4207;DHT22;2117;47.972;7.830;2023-03-01T05:33:11;-0.50;99.90
4207;DHT22;2117;47.972;7.830;2023-03-01T05:35:44;-0.50;99.90
4207;DHT22;2117;47.972;7.830;2023-03-01T05:38:13;-0.50;99.90
4207;DHT22;2117;47.972;7.830;2023-03-01T05:40:39;-0.50;99.90
4207;DHT22;2117;47.972;7.830;2023-03-01T05:43:05;-0.40;99.90
4207;DHT22;2117;47.972;7.830;2023-03-01T05:45:31;-0.50;99.90
4207;DHT22;2117;47.972;7.830;2023-03-01T05:47:58;-0.40;99.90
4207;DHT22;2117;47.972;7.830;2023-03-01T05:50:28;-0.60;99.90
4207;DHT22;2117;47.972;7.830;2023-03-01T05:53:06;-0.60;99.90
4207;DHT22;2117;47.972;7.830;2023-03-01T05:55:33;-0.60;99.90
4207;DHT22;2117;47.972;7.830;2023-03-01T05:58:00;-0.60;99.90
4207;DHT22;2117;47.972;7.830;2023-03-01T06:00:27;-0.50;99.90
4207;DHT22;2117;47.972;7.830;2023-03-01T06:02:54;-0.40;99.90
4207;DHT22;2117;47.972;7.830;2023-03-01T06:05:19;-0.30;99.90
4207;DHT22;2117;47.972;7.830;2023-03-01T06:07:45;-0.40;99.90
4207;DHT22;2117;47.972;7.830;2023-03-01T06:10:12;-0.30;99.90
4207;DHT22;2117;47.972;7.830;2023-03-01T06:12:39;-0.40;99.90
4207;DHT22;2117;47.972;7.830;2023-03-01T06:15:06;-0.40;99.90
4207;DHT22;2117;47.972;7.830;2023-03-01T06:17:34;-0.40;99.90
4207;DHT22;2117;47.972;7.830;2023-03-01T06:20:03;-0.40;99.90
4207;DHT22;2117;47.972;7.830;2023-03-01T06:22:29;-0.30;99.90
4207;DHT22;2117;47.972;7.830;2023-03-01T06:24:55;-0.20;99.90
4207;DHT22;2117;47.972;7.830;2023-03-01T06:27:21;-0.20;99.90
4207;DHT22;2117;47.972;7.830;2023-03-01T06:29:46;-0.10;99.90
4207;DHT22;2117;47.972;7.830;2023-03-01T06:32:12;-0.10;99.90
4207;DHT22;2117;47.972;7.830;2023-03-01T06:34:37;0.00;99.90
4207;DHT22;2117;47.972;7.830;2023-03-01T06:37:04;0.10;99.90
4207;DHT22;2117;47.972;7.830;2023-03-01T06:39:33;0.00;99.90
4207;DHT22;2117;47.972;7.830;2023-03-01T06:41:59;0.10;99.90
4207;DHT22;2117;47.972;7.830;2023-03-01T06:44:28;0.00;99.90
4207;DHT22;2117;47.972;7.830;2023-03-01T06:46:53;0.10;99.90
4207;DHT22;2117;47.972;7.830;2023-03-01T06:49:19;0.10;99.90
4207;DHT22;2117;47.972;7.830;2023-03-01T06:51:45;0.10;99.90
4207;DHT22;2117;47.972;7.830;2023-03-01T06:54:11;0.10;99.90
4207;DHT22;2117;47.972;7.830;2023-03-01T06:56:37;0.10;99.90
4207;DHT22;2117;47.972;7.830;2023-03-01T06:59:03;0.10;99.90
4207;DHT22;2117;47.972;7.830;2023-03-01T07:01:30;0.10;99.90
4207;DHT22;2117;47.972;7.830;2023-03-01T07:03:56;0.20;99.90
4207;DHT22;2117;47.972;7.830;2023-03-01T07:06:22;0.10;99.90
4207;DHT22;2117;47.972;7.830;2023-03-01T07:08:48;0.10;99.90
4207;DHT22;2117;47.972;7.830;2023-03-01T07:11:14;0.10;99.90
4207;DHT22;2117;47.972;7.830;2023-03-01T07:13:40;0.10;99.90
4207;DHT22;2117;47.972;7.830;2023-03-01T07:16:05;0.20;99.90
4207;DHT22;2117;47.972;7.830;2023-03-01T07:18:31;0.20;99.90
4207;DHT22;2117;47.972;7.830;2023-03-01T07:20:57;0.20;99.90
4207;DHT22;2117;47.972;7.830;2023-03-01T07:23:22;0.30;99.90
4207;DHT22;2117;47.972;7.830;2023-03-01T07:25:54;0.30;99.90
4207;DHT22;2117;47.972;7.830;2023-03-01T07:28:22;0.30;99.90
4207;DHT22;2117;47.972;7.830;2023-03-01T07:30:48;0.40;99.90
4207;DHT22;2117;47.972;7.830;2023-03-01T07:33:14;0.50;99.90
4207;DHT22;2117;47.972;7.830;2023-03-01T07:35:39;0.50;99.90
4207;DHT22;2117;47.972;7.830;2023-03-01T07:38:05;0.50;99.90
4207;DHT22;2117;47.972;7.830;2023-03-01T07:40:31;0.50;99.90
4207;DHT22;2117;47.972;7.830;2023-03-01T07:42:57;0.50;99.90
4207;DHT22;2117;47.972;7.830;2023-03-01T07:45:23;0.60;99.90
4207;DHT22;2117;47.972;7.830;2023-03-01T07:47:51;0.60;99.90
4207;DHT22;2117;47.972;7.830;2023-03-01T07:50:16;0.60;99.90
4207;DHT22;2117;47.972;7.830;2023-03-01T07:52:45;0.60;99.90
4207;DHT22;2117;47.972;7.830;2023-03-01T07:55:11;0.70;99.90
4207;DHT22;2117;47.972;7.830;2023-03-01T07:57:37;0.70;99.90
4207;DHT22;2117;47.972;7.830;2023-03-01T08:00:03;0.80;99.90
4207;DHT22;2117;47.972;7.830;2023-03-01T08:02:29;0.90;99.90
4207;DHT22;2117;47.972;7.830;2023-03-01T08:04:54;0.90;99.90
4207;DHT22;2117;47.972;7.830;2023-03-01T08:07:20;0.90;99.90
4207;DHT22;2117;47.972;7.830;2023-03-01T08:09:45;0.90;99.90
4207;DHT22;2117;47.972;7.830;2023-03-01T08:12:11;0.90;99.90
4207;DHT22;2117;47.972;7.830;2023-03-01T08:14:37;0.90;99.90
4207;DHT22;2117;47.972;7.830;2023-03-01T08:17:02;0.90;99.90
4207;DHT22;2117;47.972;7.830;2023-03-01T08:19:28;0.90;99.90
4207;DHT22;2117;47.972;7.830;2023-03-01T08:21:54;1.00;99.90
4207;DHT22;2117;47.972;7.830;2023-03-01T08:24:20;1.00;99.90
4207;DHT22;2117;47.972;7.830;2023-03-01T08:26:46;1.00;99.90
4207;DHT22;2117;47.972;7.830;2023-03-01T08:29:11;1.00;99.90
4207;DHT22;2117;47.972;7.830;2023-03-01T08:31:39;1.00;99.90
4207;DHT22;2117;47.972;7.830;2023-03-01T08:34:07;1.10;99.90
4207;DHT22;2117;47.972;7.830;2023-03-01T08:36:37;1.10;99.90
4207;DHT22;2117;47.972;7.830;2023-03-01T08:39:03;1.20;99.90
4207;DHT22;2117;47.972;7.830;2023-03-01T08:41:29;1.20;99.90
4207;DHT22;2117;47.972;7.830;2023-03-01T08:43:55;1.20;99.90
4207;DHT22;2117;47.972;7.830;2023-03-01T08:46:28;1.20;99.90
4207;DHT22;2117;47.972;7.830;2023-03-01T08:48:54;1.20;99.90
4207;DHT22;2117;47.972;7.830;2023-03-01T08:51:20;1.30;99.90
4207;DHT22;2117;47.972;7.830;2023-03-01T08:53:46;1.30;99.90
4207;DHT22;2117;47.972;7.830;2023-03-01T08:56:12;1.30;99.90
4207;DHT22;2117;47.972;7.830;2023-03-01T08:58:38;1.40;99.90
4207;DHT22;2117;47.972;7.830;2023-03-01T09:01:09;1.40;99.90
4207;DHT22;2117;47.972;7.830;2023-03-01T09:03:35;1.50;99.90
4207;DHT22;2117;47.972;7.830;2023-03-01T09:06:01;1.50;99.90
4207;DHT22;2117;47.972;7.830;2023-03-01T09:08:27;1.60;99.90
4207;DHT22;2117;47.972;7.830;2023-03-01T09:10:53;1.60;99.90
4207;DHT22;2117;47.972;7.830;2023-03-01T09:13:19;1.70;99.90
4207;DHT22;2117;47.972;7.830;2023-03-01T09:15:44;1.70;99.90
4207;DHT22;2117;47.972;7.830;2023-03-01T09:18:10;1.70;99.90
4207;DHT22;2117;47.972;7.830;2023-03-01T09:20:36;1.80;99.90
4207;DHT22;2117;47.972;7.830;2023-03-01T09:23:01;1.80;99.90
4207;DHT22;2117;47.972;7.830;2023-03-01T09:25:27;1.90;99.90
4207;DHT22;2117;47.972;7.830;2023-03-01T09:27:54;1.90;99.90
4207;DHT22;2117;47.972;7.830;2023-03-01T09:30:20;1.90;99.90
4207;DHT22;2117;47.972;7.830;2023-03-01T09:32:46;1.90;99.90
4207;DHT22;2117;47.972;7.830;2023-03-01T09:35:12;2.00;99.90
4207;DHT22;2117;47.972;7.830;2023-03-01T09:37:38;2.00;99.90
4207;DHT22;2117;47.972;7.830;2023-03-01T09:40:12;2.10;99.90
4207;DHT22;2117;47.972;7.830;2023-03-01T09:42:48;2.10;99.90
4207;DHT22;2117;47.972;7.830;2023-03-01T09:45:27;2.20;99.90
4207;DHT22;2117;47.972;7.830;2023-03-01T09:47:53;2.30;99.90
4207;DHT22;2117;47.972;7.830;2023-03-01T09:50:21;2.30;99.90
4207;DHT22;2117;47.972;7.830;2023-03-01T09:53:02;2.40;99.90
4207;DHT22;2117;47.972;7.830;2023-03-01T09:56:05;2.50;99.90
4207;DHT22;2117;47.972;7.830;2023-03-01T09:58:31;2.60;99.90
4207;DHT22;2117;47.972;7.830;2023-03-01T10:01:20;2.70;99.90
4207;DHT22;2117;47.972;7.830;2023-03-01T10:07:02;2.80;99.90
4207;DHT22;2117;47.972;7.830;2023-03-01T10:09:33;2.90;99.90
4207;DHT22;2117;47.972;7.830;2023-03-01T10:12:01;2.90;99.90
4207;DHT22;2117;47.972;7.830;2023-03-01T10:14:40;3.00;99.90
4207;DHT22;2117;47.972;7.830;2023-03-01T10:20:20;3.00;99.90
4207;DHT22;2117;47.972;7.830;2023-03-01T10:22:46;3.10;99.90
4207;DHT22;2117;47.972;7.830;2023-03-01T10:25:18;3.10;99.90
4207;DHT22;2117;47.972;7.830;2023-03-01T10:27:53;3.30;99.90
4207;DHT22;2117;47.972;7.830;2023-03-01T10:32:53;3.40;99.90
4207;DHT22;2117;47.972;7.830;2023-03-01T10:35:22;3.50;99.90
4207;DHT22;2117;47.972;7.830;2023-03-01T10:38:05;3.50;99.90
4207;DHT22;2117;47.972;7.830;2023-03-01T10:40:34;3.50;99.90
4207;DHT22;2117;47.972;7.830;2023-03-01T10:43:04;3.60;99.90
4207;DHT22;2117;47.972;7.830;2023-03-01T10:45:38;3.60;99.90
4207;DHT22;2117;47.972;7.830;2023-03-01T10:50:30;3.80;99.90
4207;DHT22;2117;47.972;7.830;2023-03-01T10:53:02;3.90;99.90
4207;DHT22;2117;47.972;7.830;2023-03-01T10:55:39;4.00;99.90
4207;DHT22;2117;47.972;7.830;2023-03-01T10:58:11;4.10;99.90
4207;DHT22;2117;47.972;7.830;2023-03-01T11:00:54;4.20;99.90
4207;DHT22;2117;47.972;7.830;2023-03-01T11:03:23;4.30;99.90
4207;DHT22;2117;47.972;7.830;2023-03-01T11:08:45;4.40;99.90
4207;DHT22;2117;47.972;7.830;2023-03-01T11:11:22;4.40;99.90
4207;DHT22;2117;47.972;7.830;2023-03-01T11:13:57;4.50;99.90
4207;DHT22;2117;47.972;7.830;2023-03-01T11:16:34;4.60;99.90
4207;DHT22;2117;47.972;7.830;2023-03-01T11:19:15;4.70;99.90
4207;DHT22;2117;47.972;7.830;2023-03-01T11:22:29;4.80;99.90
4207;DHT22;2117;47.972;7.830;2023-03-01T11:24:39;4.80;99.90
4207;DHT22;2117;47.972;7.830;2023-03-01T11:27:31;4.90;99.90
4207;DHT22;2117;47.972;7.830;2023-03-01T11:29:59;5.00;99.90
4207;DHT22;2117;47.972;7.830;2023-03-01T11:32:36;5.10;99.90
4207;DHT22;2117;47.972;7.830;2023-03-01T11:35:26;5.10;99.90
4207;DHT22;2117;47.972;7.830;2023-03-01T11:38:16;5.10;99.90
4207;DHT22;2117;47.972;7.830;2023-03-01T11:41:04;5.30;99.90
4207;DHT22;2117;47.972;7.830;2023-03-01T11:51:40;5.60;99.90
4207;DHT22;2117;47.972;7.830;2023-03-01T11:54:29;5.60;99.90
4207;DHT22;2117;47.972;7.830;2023-03-01T11:57:04;5.70;99.90
4207;DHT22;2117;47.972;7.830;2023-03-01T12:05:59;5.90;99.90
4207;DHT22;2117;47.972;7.830;2023-03-01T12:08:49;6.00;99.90
4207;DHT22;2117;47.972;7.830;2023-03-01T12:14:24;6.10;99.90
4207;DHT22;2117;47.972;7.830;2023-03-01T12:17:02;6.30;99.90
4207;DHT22;2117;47.972;7.830;2023-03-01T12:22:49;6.40;99.90
4207;DHT22;2117;47.972;7.830;2023-03-01T12:25:35;6.50;99.90
4207;DHT22;2117;47.972;7.830;2023-03-01T12:31:00;6.60;99.90
4207;DHT22;2117;47.972;7.830;2023-03-01T12:42:10;6.90;99.90
4207;DHT22;2117;47.972;7.830;2023-03-01T12:49:53;7.20;99.90
4207;DHT22;2117;47.972;7.830;2023-03-01T12:52:39;7.60;99.90
4207;DHT22;2117;47.972;7.830;2023-03-01T13:00:40;9.10;99.90
4207;DHT22;2117;47.972;7.830;2023-03-01T13:03:24;9.40;99.90
4207;DHT22;2117;47.972;7.830;2023-03-01T13:06:21;9.80;99.90
4207;DHT22;2117;47.972;7.830;2023-03-01T13:09:01;10.20;99.90
4207;DHT22;2117;47.972;7.830;2023-03-01T13:11:29;10.50;99.90
4207;DHT22;2117;47.972;7.830;2023-03-01T13:16:49;10.80;99.90
4207;DHT22;2117;47.972;7.830;2023-03-01T13:19:26;11.40;99.90
4207;DHT22;2117;47.972;7.830;2023-03-01T13:21:58;11.90;99.90
4207;DHT22;2117;47.972;7.830;2023-03-01T13:29:50;12.60;98.10
4207;DHT22;2117;47.972;7.830;2023-03-01T13:32:36;12.70;97.00
4207;DHT22;2117;47.972;7.830;2023-03-01T13:37:40;12.60;97.10
4207;DHT22;2117;47.972;7.830;2023-03-01T13:40:57;12.50;97.10
4207;DHT22;2117;47.972;7.830;2023-03-01T13:43:26;12.40;96.90
4207;DHT22;2117;47.972;7.830;2023-03-01T13:48:25;12.20;95.90
4207;DHT22;2117;47.972;7.830;2023-03-01T13:50:55;12.00;96.00
4207;DHT22;2117;47.972;7.830;2023-03-01T13:53:25;11.80;97.40
4207;DHT22;2117;47.972;7.830;2023-03-01T13:56:12;11.90;96.30
4207;DHT22;2117;47.972;7.830;2023-03-01T13:58:51;11.80;96.70
4207;DHT22;2117;47.972;7.830;2023-03-01T14:01:28;11.50;96.40
4207;DHT22;2117;47.972;7.830;2023-03-01T14:03:54;11.10;96.90
4207;DHT22;2117;47.972;7.830;2023-03-01T14:06:30;11.10;98.10
4207;DHT22;2117;47.972;7.830;2023-03-01T14:09:28;11.10;97.70
4207;DHT22;2117;47.972;7.830;2023-03-01T14:15:19;11.60;98.50
4207;DHT22;2117;47.972;7.830;2023-03-01T14:20:23;12.30;97.70
4207;DHT22;2117;47.972;7.830;2023-03-01T14:22:52;12.40;96.00
4207;DHT22;2117;47.972;7.830;2023-03-01T14:25:37;12.40;95.70
4207;DHT22;2117;47.972;7.830;2023-03-01T14:28:17;12.10;94.30
4207;DHT22;2117;47.972;7.830;2023-03-01T14:30:49;11.90;95.80
4207;DHT22;2117;47.972;7.830;2023-03-01T14:33:22;11.90;95.80
4207;DHT22;2117;47.972;7.830;2023-03-01T14:36:03;12.50;95.80
4207;DHT22;2117;47.972;7.830;2023-03-01T14:38:32;12.50;96.00
4207;DHT22;2117;47.972;7.830;2023-03-01T14:41:02;12.50;94.80
4207;DHT22;2117;47.972;7.830;2023-03-01T14:43:29;12.30;95.10
4207;DHT22;2117;47.972;7.830;2023-03-01T14:45:56;12.20;95.50
4207;DHT22;2117;47.972;7.830;2023-03-01T14:48:22;12.10;95.00
4207;DHT22;2117;47.972;7.830;2023-03-01T14:50:49;12.00;95.40
4207;DHT22;2117;47.972;7.830;2023-03-01T14:53:24;11.90;95.50
4207;DHT22;2117;47.972;7.830;2023-03-01T14:55:56;12.00;95.00
4207;DHT22;2117;47.972;7.830;2023-03-01T14:58:26;12.00;95.40
4207;DHT22;2117;47.972;7.830;2023-03-01T15:00:55;11.80;95.10
4207;DHT22;2117;47.972;7.830;2023-03-01T15:06:00;11.70;95.00
4207;DHT22;2117;47.972;7.830;2023-03-01T15:08:27;11.50;95.30
4207;DHT22;2117;47.972;7.830;2023-03-01T15:11:22;11.40;95.70
4207;DHT22;2117;47.972;7.830;2023-03-01T15:13:50;11.20;95.60
4207;DHT22;2117;47.972;7.830;2023-03-01T15:16:21;11.10;96.30
4207;DHT22;2117;47.972;7.830;2023-03-01T15:19:00;11.00;97.00
4207;DHT22;2117;47.972;7.830;2023-03-01T15:24:02;10.80;96.20
4207;DHT22;2117;47.972;7.830;2023-03-01T15:26:31;10.70;96.60
4207;DHT22;2117;47.972;7.830;2023-03-01T15:28:59;10.60;96.30
4207;DHT22;2117;47.972;7.830;2023-03-01T15:31:26;10.50;96.70
4207;DHT22;2117;47.972;7.830;2023-03-01T15:33:52;10.40;97.00
4207;DHT22;2117;47.972;7.830;2023-03-01T15:36:38;10.30;97.90
4207;DHT22;2117;47.972;7.830;2023-03-01T15:41:53;9.80;98.10
4207;DHT22;2117;47.972;7.830;2023-03-01T15:44:28;9.60;98.50
4207;DHT22;2117;47.972;7.830;2023-03-01T15:46:54;9.30;98.50
4207;DHT22;2117;47.972;7.830;2023-03-01T15:49:40;9.10;98.70
4207;DHT22;2117;47.972;7.830;2023-03-01T15:55:02;8.90;99.50
4207;DHT22;2117;47.972;7.830;2023-03-01T15:57:28;8.80;99.60
4207;DHT22;2117;47.972;7.830;2023-03-01T15:59:54;8.70;99.90
4207;DHT22;2117;47.972;7.830;2023-03-01T16:02:21;8.70;99.90
4207;DHT22;2117;47.972;7.830;2023-03-01T16:04:47;8.70;99.90
4207;DHT22;2117;47.972;7.830;2023-03-01T16:07:14;8.60;99.90
4207;DHT22;2117;47.972;7.830;2023-03-01T16:09:39;8.40;99.90
4207;DHT22;2117;47.972;7.830;2023-03-01T16:12:08;8.20;99.90
4207;DHT22;2117;47.972;7.830;2023-03-01T16:14:35;8.20;99.90
4207;DHT22;2117;47.972;7.830;2023-03-01T16:17:00;8.10;99.90
4207;DHT22;2117;47.972;7.830;2023-03-01T16:19:26;8.00;99.90
4207;DHT22;2117;47.972;7.830;2023-03-01T16:21:51;7.90;99.90
4207;DHT22;2117;47.972;7.830;2023-03-01T16:24:17;7.90;99.90
4207;DHT22;2117;47.972;7.830;2023-03-01T16:26:42;7.80;99.90
4207;DHT22;2117;47.972;7.830;2023-03-01T16:29:08;7.80;99.90
4207;DHT22;2117;47.972;7.830;2023-03-01T16:31:33;7.70;99.90
4207;DHT22;2117;47.972;7.830;2023-03-01T16:33:59;7.60;99.90
4207;DHT22;2117;47.972;7.830;2023-03-01T16:36:26;7.60;99.90
4207;DHT22;2117;47.972;7.830;2023-03-01T16:38:54;7.50;99.90
4207;DHT22;2117;47.972;7.830;2023-03-01T16:41:21;7.50;99.90
4207;DHT22;2117;47.972;7.830;2023-03-01T16:43:47;7.40;99.90
4207;DHT22;2117;47.972;7.830;2023-03-01T16:46:15;7.40;99.90
4207;DHT22;2117;47.972;7.830;2023-03-01T16:48:41;7.30;99.90
4207;DHT22;2117;47.972;7.830;2023-03-01T16:51:07;7.30;99.90
4207;DHT22;2117;47.972;7.830;2023-03-01T16:53:34;7.20;99.90
4207;DHT22;2117;47.972;7.830;2023-03-01T16:56:02;7.20;99.90
4207;DHT22;2117;47.972;7.830;2023-03-01T16:58:28;7.10;99.90
4207;DHT22;2117;47.972;7.830;2023-03-01T17:00:54;7.10;99.90
4207;DHT22;2117;47.972;7.830;2023-03-01T17:03:23;7.00;99.90
4207;DHT22;2117;47.972;7.830;2023-03-01T17:05:49;7.00;99.90
4207;DHT22;2117;47.972;7.830;2023-03-01T17:08:15;7.00;99.90
4207;DHT22;2117;47.972;7.830;2023-03-01T17:10:41;7.00;99.90
4207;DHT22;2117;47.972;7.830;2023-03-01T17:13:10;6.90;99.90
4207;DHT22;2117;47.972;7.830;2023-03-01T17:15:40;6.80;99.90
4207;DHT22;2117;47.972;7.830;2023-03-01T17:18:07;6.80;99.90
4207;DHT22;2117;47.972;7.830;2023-03-01T17:20:33;6.80;99.90
4207;DHT22;2117;47.972;7.830;2023-03-01T17:22:59;6.70;99.90
4207;DHT22;2117;47.972;7.830;2023-03-01T17:25:25;6.60;99.90
4207;DHT22;2117;47.972;7.830;2023-03-01T17:27:50;6.60;99.90
4207;DHT22;2117;47.972;7.830;2023-03-01T17:30:16;6.50;99.90
4207;DHT22;2117;47.972;7.830;2023-03-01T17:32:42;6.50;99.90
4207;DHT22;2117;47.972;7.830;2023-03-01T17:35:08;6.40;99.90
4207;DHT22;2117;47.972;7.830;2023-03-01T17:37:36;6.40;99.90
4207;DHT22;2117;47.972;7.830;2023-03-01T17:40:04;6.30;99.90
4207;DHT22;2117;47.972;7.830;2023-03-01T17:42:30;6.30;99.90
4207;DHT22;2117;47.972;7.830;2023-03-01T17:44:56;6.30;99.90
4207;DHT22;2117;47.972;7.830;2023-03-01T17:47:22;6.20;99.90
4207;DHT22;2117;47.972;7.830;2023-03-01T17:49:47;6.10;99.90
4207;DHT22;2117;47.972;7.830;2023-03-01T17:52:13;6.00;99.90
4207;DHT22;2117;47.972;7.830;2023-03-01T17:54:38;6.00;99.90
4207;DHT22;2117;47.972;7.830;2023-03-01T17:57:04;5.90;99.90
4207;DHT22;2117;47.972;7.830;2023-03-01T17:59:30;5.80;99.90